Galena, Nevada Weather observations

Data are for 10 minute period ending at time listed.
 Day   Time    Ave.   Ave.  Ave.  Vector   Max.   Total    Solar   
  of    of     Air    Rel.  Wind   Wind    Wind  Precip.   Rad.    
Year   Day     Temp.  Hum.  Speed  Dir.    Gust                    
2015   (PST)    F      %     mph   deg.    mph     in.     W/m2    
------------------------------------------------------------------- 
 181    7:00   75.0    42    3.0   157      5.0    2.24     276  
 181    8:00   79.0    37    3.0   156      6.0    2.24     449  
 181    9:00   83.0    30    4.0   113      9.0    2.24     644  
 181   10:00   86.0    22    6.0   158     11.0    2.24     822  
 181   11:00   88.0    20    7.0   127     14.0    2.24     881  
 181   12:00   91.0    19    9.0   168     20.0    2.24     841  
 181   13:00   91.0    20    8.0   167     20.0    2.24     950  
 181   14:00   92.0    18   11.0   181     23.0    2.24     951  
 181   15:00   94.0    16    5.0   185     22.0    2.24     822  
 181   16:00   94.0    17    8.0   234     17.0    2.24     663  
 181   17:00   92.0    22   10.0   257     20.0    2.24     652  
 181   18:00   88.0    24   10.0   246     24.0    2.24     316  
 181   19:00   79.0    37    4.0    55     15.0    2.24      78  
 181   20:00   72.0    60    5.0   180     15.0    2.25      24  
 181   21:00   67.0    68    8.0   268     15.0    2.30       0  
 181   22:00   70.0    54    5.0   247     13.0    2.30       0  
 181   23:00   70.0    49    4.0   259      7.0    2.30       0  
 182    0:00   71.0    41    6.0   285     10.0    2.30       0  
 182    1:00   67.0    50    3.0    62      7.0    2.30       0  
 182    2:00   65.0    55    3.0   221      5.0    2.30       0  
 182    3:00   65.0    53    2.0   260      6.0    2.30       0  
 182    4:00   64.0    55    5.0   329      8.0    2.30       0  
 182    5:00   66.0    50    1.0   330      5.0    2.30       2  
 182    6:00   70.0    54    2.0   298      5.0    2.30      71  

Return to Galena, Nevada graphs page.


Western Regional Climate Center,wrcc@dri.edu